Time;durP1;ratioP1;P1;durP2;ratioP2;P2;SDS_P1;SDS_P2;PMS_P1;PMS_P2;Temp;Humidity;BMP_temperature;BMP_pressure;BME280_temperature;BME280_humidity;BME280_pressure;Samples;Min_cycle;Max_cycle;Signal;HPM_P1;HPM_P2
2021/07/31 00:01:34;;;;;;;10.35;9.35;;;;;;;15.87;68.93;98166.77;2211421;80;21348;-78
2021/07/31 00:04:35;;;;;;;11.28;9.55;;;;;;;15.87;69.21;98166.77;2210900;81;21132;-78
2021/07/31 00:07:36;;;;;;;12.73;9.45;;;;;;;15.84;69.25;98166.39;2211354;80;21376;-78
2021/07/31 00:10:36;;;;;;;10.20;9.10;;;;;;;15.84;69.42;98169.02;2211309;80;21300;-78
2021/07/31 00:13:37;;;;;;;12.30;9.13;;;;;;;15.83;69.56;98171.23;2211438;80;20960;-78
2021/07/31 00:16:37;;;;;;;17.35;9.75;;;;;;;15.82;69.69;98167.31;2211202;80;21027;-78
2021/07/31 00:19:38;;;;;;;10.15;9.13;;;;;;;15.80;69.73;98163.39;2211206;81;20957;-77
2021/07/31 00:22:39;;;;;;;12.68;9.98;;;;;;;15.80;69.86;98158.13;2211257;80;21344;-79
2021/07/31 00:25:39;;;;;;;9.95;8.95;;;;;;;15.78;69.89;98154.67;2211411;81;21281;-78
2021/07/31 00:28:40;;;;;;;14.47;9.10;;;;;;;15.80;69.89;98152.88;2211310;81;20883;-78
2021/07/31 00:31:40;;;;;;;10.93;8.60;;;;;;;15.81;69.93;98154.61;2211365;81;20916;-79
2021/07/31 00:34:41;;;;;;;10.68;9.68;;;;;;;15.81;70.03;98153.29;2214757;80;20959;-77
2021/07/31 00:37:41;;;;;;;10.90;9.40;;;;;;;15.83;70.15;98146.23;2221669;80;20921;-78
2021/07/31 00:40:42;;;;;;;13.10;9.68;;;;;;;15.79;70.13;98147.19;2221549;80;20912;-78
2021/07/31 00:43:42;;;;;;;10.30;9.30;;;;;;;15.72;70.24;98157.87;2221551;80;20948;-78
2021/07/31 00:46:43;;;;;;;12.93;9.55;;;;;;;15.70;70.82;98152.64;2221473;80;21368;-78
2021/07/31 00:49:43;;;;;;;12.40;9.38;;;;;;;15.73;70.77;98146.45;2221678;80;20937;-78
2021/07/31 00:52:44;;;;;;;10.58;9.48;;;;;;;15.56;70.70;98144.08;2221500;80;20932;-78
2021/07/31 00:55:44;;;;;;;17.48;10.10;;;;;;;15.56;70.70;98144.08;2221635;80;20920;-78
2021/07/31 00:58:45;;;;;;;13.50;10.13;;;;;;;15.52;70.97;98135.38;2221209;80;20905;-77
2021/07/31 01:01:45;;;;;;;13.10;10.20;;;;;;;15.50;71.22;98127.97;2221524;80;21368;-78
2021/07/31 01:04:45;;;;;;;31.70;11.78;;;;;;;15.56;71.43;98131.80;2221687;80;20932;-77
2021/07/31 01:07:46;;;;;;;11.50;10.10;;;;;;;15.57;71.48;98130.93;2221579;80;20960;-77
2021/07/31 01:10:47;;;;;;;12.30;9.85;;;;;;;15.56;71.42;98125.66;2221676;80;20885;-78
2021/07/31 01:13:47;;;;;;;13.22;10.10;;;;;;;15.51;71.45;98121.81;2221554;80;20905;-78
2021/07/31 01:16:47;;;;;;;14.47;10.00;;;;;;;15.37;71.72;98117.71;2221493;80;21356;-78
2021/07/31 01:19:48;;;;;;;11.85;10.50;;;;;;;15.37;71.72;98117.71;2221441;80;21320;-78
2021/07/31 01:22:48;;;;;;;12.70;11.08;;;;;;;15.34;71.85;98111.20;2221783;80;20987;-78
2021/07/31 01:25:49;;;;;;;12.40;10.72;;;;;;;15.35;72.30;98108.98;2221844;80;20912;-79
2021/07/31 01:28:50;;;;;;;12.15;9.90;;;;;;;15.41;72.10;98110.19;2221775;80;20913;-78
2021/07/31 01:31:50;;;;;;;15.75;10.90;;;;;;;15.50;72.20;98107.38;2221744;80;21335;-79
2021/07/31 01:34:51;;;;;;;12.73;10.85;;;;;;;15.51;72.31;98099.45;2221775;80;21336;-78
2021/07/31 01:37:51;;;;;;;13.50;10.72;;;;;;;15.52;72.22;98108.21;2221890;80;20967;-79
2021/07/31 01:40:52;;;;;;;16.50;11.08;;;;;;;15.50;72.45;98107.38;2221727;80;20932;-78
2021/07/31 01:43:52;;;;;;;13.22;10.58;;;;;;;15.51;72.32;98107.80;2221735;80;20936;-78
2021/07/31 01:46:53;;;;;;;12.05;10.53;;;;;;;15.50;71.99;98102.11;2221683;80;20964;-78
2021/07/31 01:49:53;;;;;;;16.10;11.25;;;;;;;15.51;72.24;98101.22;2221737;80;21304;-78
2021/07/31 01:52:53;;;;;;;12.85;10.50;;;;;;;15.52;72.34;98097.69;2221965;80;21289;-78
2021/07/31 01:55:54;;;;;;;15.03;10.68;;;;;;;15.52;72.28;98097.69;2221765;80;20928;-78
2021/07/31 01:58:55;;;;;;;13.58;10.48;;;;;;;15.52;72.46;98094.61;2221872;80;20960;-77
2021/07/31 02:01:56;;;;;;;13.68;10.82;;;;;;;15.51;72.24;98090.25;2221772;80;21052;-79
2021/07/31 02:04:57;;;;;;;14.47;10.25;;;;;;;15.52;72.27;98091.98;2221856;80;20940;-80
2021/07/31 02:07:57;;;;;;;21.05;10.98;;;;;;;15.53;72.46;98102.05;2221863;80;20909;-77
2021/07/31 02:10:58;;;;;;;12.63;10.35;;;;;;;15.45;72.17;98104.83;2221718;80;20897;-78
2021/07/31 02:13:58;;;;;;;13.80;10.88;;;;;;;15.45;72.17;98104.83;2221701;80;20913;-78
2021/07/31 02:16:59;;;;;;;15.30;10.72;;;;;;;15.38;72.36;98099.72;2221774;80;21320;-78
2021/07/31 02:19:59;;;;;;;16.00;10.50;;;;;;;15.35;72.59;98093.20;2221727;80;20904;-78
2021/07/31 02:23:00;;;;;;;15.58;10.80;;;;;;;15.33;72.71;98091.92;2221831;80;20956;-78
2021/07/31 02:26:00;;;;;;;12.85;10.78;;;;;;;15.30;72.66;98092.84;2221776;80;20916;-77
2021/07/31 02:29:01;;;;;;;14.55;10.40;;;;;;;15.29;72.83;98096.81;2221696;80;20928;-79
2021/07/31 02:32:01;;;;;;;12.25;10.45;;;;;;;15.28;72.87;98098.58;2221654;80;21288;-77
2021/07/31 02:35:02;;;;;;;15.32;11.05;;;;;;;15.26;72.78;98096.88;2221638;80;21316;-78
2021/07/31 02:38:02;;;;;;;12.07;9.90;;;;;;;15.25;73.06;98099.09;2221708;80;21023;-78
2021/07/31 02:41:03;;;;;;;79.25;14.68;;;;;;;15.24;72.94;98095.59;2221331;80;20952;-78
2021/07/31 02:44:03;;;;;;;66.25;12.58;;;;;;;15.24;73.08;98095.59;2221754;80;20916;-77
2021/07/31 02:47:04;;;;;;;13.45;10.70;;;;;;;15.21;72.97;98089.08;2221833;80;21281;-78
2021/07/31 02:50:05;;;;;;;16.27;10.55;;;;;;;15.19;72.93;98086.06;2221748;80;20984;-79
2021/07/31 02:53:06;;;;;;;15.32;9.88;;;;;;;15.21;73.13;98089.08;2221805;80;20921;-78
2021/07/31 02:56:06;;;;;;;16.25;11.10;;;;;;;15.25;73.31;98098.64;2221750;80;20892;-78
2021/07/31 02:59:07;;;;;;;13.85;9.88;;;;;;;15.34;73.56;98101.98;2221710;80;20926;-78
2021/07/31 03:02:07;;;;;;;16.60;10.48;;;;;;;15.45;73.33;98098.70;2221731;80;20959;-78
2021/07/31 03:05:08;;;;;;;11.68;10.08;;;;;;;15.51;73.69;98091.56;2221663;80;21292;-78
2021/07/31 03:08:08;;;;;;;15.68;11.70;;;;;;;15.55;73.92;98084.03;2221856;80;21340;-78
2021/07/31 03:11:09;;;;;;;15.10;11.93;;;;;;;15.63;74.09;98083.94;2221708;80;20893;-79
2021/07/31 03:14:09;;;;;;;21.75;11.15;;;;;;;15.73;73.85;98080.22;2221653;80;20925;-78
2021/07/31 03:17:10;;;;;;;19.17;11.33;;;;;;;15.87;73.82;98087.83;2221617;80;20916;-77
2021/07/31 03:20:11;;;;;;;16.67;11.10;;;;;;;16.01;73.74;98083.58;2221968;80;21267;-78
2021/07/31 03:23:11;;;;;;;16.65;11.93;;;;;;;16.15;73.49;98086.77;2221616;80;20999;-78
2021/07/31 03:26:12;;;;;;;12.82;11.22;;;;;;;16.28;73.23;98086.91;2221292;80;20908;-78
2021/07/31 03:29:12;;;;;;;16.40;10.98;;;;;;;16.36;73.05;98098.13;2221757;80;20956;-77
2021/07/31 03:32:13;;;;;;;12.88;11.57;;;;;;;16.43;72.98;98087.86;2220886;80;20928;-77
2021/07/31 03:35:13;;;;;;;13.93;10.78;;;;;;;16.43;72.98;98087.86;2217750;80;20971;-78
2021/07/31 03:38:14;;;;;;;15.20;10.75;;;;;;;16.51;72.76;98083.31;2211046;81;20964;-78
2021/07/31 03:41:14;;;;;;;16.07;11.95;;;;;;;16.63;72.55;98081.28;2211205;81;21380;-78
2021/07/31 03:44:15;;;;;;;15.60;11.57;;;;;;;16.72;72.32;98079.77;2211693;81;20916;-78
2021/07/31 03:47:15;;;;;;;16.40;11.63;;;;;;;16.82;72.09;98082.59;2211287;81;20913;-78
2021/07/31 03:50:16;;;;;;;18.15;12.25;;;;;;;16.86;71.62;98075.89;2211305;81;20957;-78
2021/07/31 03:53:16;;;;;;;19.02;11.78;;;;;;;16.95;71.80;98074.78;2211287;81;20963;-80
2021/07/31 03:56:19;;;;;;;13.40;11.22;;;;;;;17.00;71.55;98070.26;2211285;81;21281;-77
2021/07/31 03:59:20;;;;;;;18.23;12.25;;;;;;;17.03;71.44;98075.45;2211383;81;20976;-78
2021/07/31 04:02:21;;;;;;;16.73;12.20;;;;;;;17.04;71.35;98071.91;2211399;81;20987;-79
2021/07/31 04:05:21;;;;;;;15.15;11.22;;;;;;;17.09;71.28;98071.33;2211318;81;20920;-78
2021/07/31 04:08:21;;;;;;;17.27;12.05;;;;;;;17.13;71.17;98071.66;2211436;81;20933;-78
2021/07/31 04:11:22;;;;;;;17.07;11.35;;;;;;;17.13;71.04;98067.70;2211273;81;20901;-77
2021/07/31 04:14:22;;;;;;;19.55;12.33;;;;;;;17.14;71.07;98067.25;2211229;81;21297;-77
2021/07/31 04:17:23;;;;;;;20.08;12.13;;;;;;;17.13;71.00;98065.07;2211318;81;20925;-79
2021/07/31 04:20:26;;;;;;;17.35;11.65;;;;;;;17.14;71.01;98061.53;2211307;81;20933;-79
2021/07/31 04:23:27;;;;;;;34.23;14.28;;;;;;;17.15;70.89;98062.39;2211346;81;20968;-78
2021/07/31 04:26:27;;;;;;;14.83;11.33;;;;;;;17.20;70.98;98061.36;2211265;81;20913;-77
2021/07/31 04:29:28;;;;;;;14.58;11.28;;;;;;;17.31;70.98;98050.97;2210639;81;20901;-79
2021/07/31 04:32:28;;;;;;;14.58;11.30;;;;;;;17.48;70.83;98057.99;2210415;81;20947;-77
2021/07/31 04:35:29;;;;;;;71.05;14.68;;;;;;;17.69;70.57;98053.91;2213699;80;20964;-77
2021/07/31 04:38:30;;;;;;;151.25;19.70;;;;;;;17.98;70.17;98054.36;2221439;80;20920;-80
2021/07/31 04:41:30;;;;;;;15.20;11.22;;;;;;;18.26;70.79;98048.66;2222534;80;20963;-81
2021/07/31 04:44:31;;;;;;;164.75;20.97;;;;;;;19.66;69.86;98046.55;2223089;80;20932;-80
2021/07/31 04:47:31;;;;;;;37.13;12.18;;;;;;;20.87;67.19;98042.70;2222635;80;20928;-79
2021/07/31 04:50:32;;;;;;;26.37;11.03;;;;;;;21.83;64.96;98040.28;2221972;80;20984;-79
2021/07/31 04:53:32;;;;;;;24.05;11.00;;;;;;;22.48;61.58;98042.50;2222190;80;21352;-82
2021/07/31 04:56:33;;;;;;;16.73;10.35;;;;;;;23.15;59.62;98046.30;2222505;80;21160;-81
2021/07/31 04:59:33;;;;;;;15.98;10.05;;;;;;;23.53;57.70;98043.00;2222333;80;20959;-81
2021/07/31 05:02:34;;;;;;;15.68;10.23;;;;;;;23.85;55.79;98049.77;2222166;80;20948;-80
2021/07/31 05:05:34;;;;;;;15.98;10.78;;;;;;;24.08;54.59;98048.91;2222215;80;20940;-80
2021/07/31 05:08:35;;;;;;;13.45;9.85;;;;;;;24.08;54.20;98040.91;2222527;80;20940;-82
2021/07/31 05:11:36;;;;;;;15.28;9.83;;;;;;;24.01;54.06;98042.19;2221825;80;21301;-80
2021/07/31 05:14:36;;;;;;;11.35;9.68;;;;;;;24.08;54.05;98044.05;2222094;80;20897;-80
2021/07/31 05:17:37;;;;;;;13.10;9.90;;;;;;;24.00;54.51;98040.47;2222110;80;20917;-79
2021/07/31 05:20:37;;;;;;;11.50;9.28;;;;;;;23.83;54.74;98044.53;2222162;80;20925;-81
2021/07/31 05:23:37;;;;;;;11.70;9.08;;;;;;;24.26;54.48;98050.16;2222159;80;20984;-80
2021/07/31 05:26:38;;;;;;;15.08;9.90;;;;;;;24.47;53.66;98049.02;2222145;80;21308;-80
2021/07/31 05:29:39;;;;;;;10.28;9.23;;;;;;;24.40;53.35;98047.64;2222279;80;21260;-80
2021/07/31 05:32:39;;;;;;;20.25;9.90;;;;;;;24.51;53.08;98048.36;2222154;80;20924;-80
2021/07/31 05:35:40;;;;;;;19.07;10.55;;;;;;;24.32;53.21;98059.21;2222091;80;20920;-80
2021/07/31 05:38:41;;;;;;;13.30;10.25;;;;;;;24.46;52.99;98064.63;2221797;80;20952;-79
2021/07/31 05:41:41;;;;;;;19.17;10.82;;;;;;;24.69;53.13;98073.99;2221894;80;20948;-80
2021/07/31 05:44:41;;;;;;;20.92;11.08;;;;;;;24.21;52.78;98098.41;2221829;80;20951;-80
2021/07/31 05:47:42;;;;;;;19.02;11.83;;;;;;;23.46;54.40;98107.72;2221765;80;20967;-80
2021/07/31 05:50:43;;;;;;;24.15;13.53;;;;;;;23.43;55.01;98097.70;2221941;80;20909;-81
2021/07/31 05:53:43;;;;;;;19.98;11.18;;;;;;;23.71;54.81;98102.47;2221572;80;21324;-78
2021/07/31 05:56:45;;;;;;;14.07;10.63;;;;;;;24.20;54.87;98093.16;2221851;80;20912;-78
2021/07/31 05:59:46;;;;;;;63.92;12.28;;;;;;;24.86;53.71;98093.03;2221815;80;20951;-80
2021/07/31 06:02:46;;;;;;;23.75;10.68;;;;;;;25.11;53.03;98081.34;2221643;80;21343;-81
2021/07/31 06:05:47;;;;;;;128.85;20.95;;;;;;;25.43;52.21;98078.12;2221465;80;21015;-79
2021/07/31 06:08:47;;;;;;;30.48;11.68;;;;;;;25.84;50.96;98070.75;2222548;80;20876;-79
2021/07/31 06:11:48;;;;;;;15.30;10.40;;;;;;;26.18;50.04;98070.86;2222611;80;20964;-80
2021/07/31 06:14:48;;;;;;;28.45;10.55;;;;;;;26.17;49.10;98067.80;2222282;80;20924;-80
2021/07/31 06:17:49;;;;;;;19.17;9.38;;;;;;;26.18;48.86;98073.05;2221886;80;20960;-82
2021/07/31 06:20:49;;;;;;;11.55;8.98;;;;;;;26.47;48.31;98066.34;2222024;80;20959;-80
2021/07/31 06:23:50;;;;;;;11.35;8.95;;;;;;;26.55;47.98;98070.23;2221997;80;20940;-80
2021/07/31 06:26:50;;;;;;;12.28;9.38;;;;;;;26.66;48.05;98070.39;2222068;80;20897;-80
2021/07/31 06:29:51;;;;;;;13.28;8.90;;;;;;;26.84;47.48;98060.77;2221981;80;21297;-82
2021/07/31 06:32:51;;;;;;;17.92;9.85;;;;;;;26.96;46.96;98074.23;2221983;80;20904;-80
2021/07/31 06:35:52;;;;;;;12.88;9.00;;;;;;;26.95;46.88;98077.02;2221818;80;21004;-82
2021/07/31 06:38:52;;;;;;;17.73;9.05;;;;;;;26.98;46.74;98075.50;2221411;80;20944;-83
2021/07/31 06:41:53;;;;;;;9.55;8.33;;;;;;;27.02;46.63;98077.02;2221970;80;20952;-82
2021/07/31 06:44:53;;;;;;;9.58;8.58;;;;;;;27.15;46.49;98076.56;2221784;80;20900;-80
2021/07/31 06:47:54;;;;;;;11.80;8.93;;;;;;;27.27;45.94;98070.38;2221929;80;20936;-80
2021/07/31 06:50:54;;;;;;;10.45;8.98;;;;;;;27.35;45.98;98077.03;2221877;80;20960;-80
2021/07/31 06:53:55;;;;;;;13.53;8.20;;;;;;;27.17;45.77;98078.66;2221964;80;21293;-81
2021/07/31 06:56:55;;;;;;;10.65;8.68;;;;;;;27.26;45.83;98079.38;2221848;80;20881;-81
2021/07/31 06:59:56;;;;;;;10.65;8.63;;;;;;;27.24;46.02;98082.64;2221974;80;20965;-80
2021/07/31 07:02:56;;;;;;;10.38;8.88;;;;;;;27.57;44.99;98086.66;2221390;80;20951;-82
2021/07/31 07:05:57;;;;;;;13.68;8.80;;;;;;;27.60;44.25;98086.45;2221889;80;21363;-81
2021/07/31 07:08:57;;;;;;;12.37;9.38;;;;;;;27.66;44.96;98086.53;2222014;80;20916;-81
2021/07/31 07:11:58;;;;;;;9.90;8.40;;;;;;;27.68;44.41;98089.97;2221980;80;20916;-81
2021/07/31 07:14:58;;;;;;;12.43;8.90;;;;;;;27.36;44.23;98088.98;2221852;80;20920;-82
2021/07/31 07:17:59;;;;;;;13.93;8.53;;;;;;;27.35;44.64;98086.41;2222108;80;20936;-82
2021/07/31 07:20:59;;;;;;;11.83;9.18;;;;;;;27.66;45.13;98083.86;2221981;80;20960;-82
2021/07/31 07:24:00;;;;;;;9.20;8.20;;;;;;;27.77;44.72;98080.83;2221933;80;20983;-81
2021/07/31 07:27:00;;;;;;;11.25;8.78;;;;;;;27.62;44.79;98085.89;2221954;80;20940;-81
2021/07/31 07:30:01;;;;;;;9.95;8.33;;;;;;;27.63;44.79;98082.73;2222018;80;20959;-80
2021/07/31 07:33:03;;;;;;;12.25;8.78;;;;;;;27.57;44.91;98079.95;2222393;80;20928;-81
2021/07/31 07:36:03;;;;;;;10.72;8.28;;;;;;;27.41;44.96;98081.49;2219499;80;21004;-82
2021/07/31 07:39:04;;;;;;;9.70;8.70;;;;;;;27.44;44.97;98084.45;2212308;81;20922;-82
2021/07/31 07:42:05;;;;;;;11.80;7.78;;;;;;;27.57;44.95;98088.00;2212155;81;20984;-82
2021/07/31 07:45:06;;;;;;;14.07;9.25;;;;;;;27.78;44.11;98093.27;2212007;81;21329;-81
2021/07/31 07:48:06;;;;;;;15.55;8.25;;;;;;;27.76;43.24;98093.86;2211605;81;20928;-82
2021/07/31 07:51:07;;;;;;;9.13;8.23;;;;;;;28.04;43.92;98087.90;2211630;81;20949;-81
2021/07/31 07:54:08;;;;;;;13.05;8.40;;;;;;;28.27;43.45;98102.39;2211702;80;20913;-82
2021/07/31 07:57:08;;;;;;;12.23;8.70;;;;;;;28.51;43.01;98099.27;2211905;81;20937;-81
2021/07/31 08:00:09;;;;;;;11.57;8.20;;;;;;;28.92;42.50;98104.83;2211389;81;21419;-82
2021/07/31 08:03:10;;;;;;;10.88;9.03;;;;;;;29.22;42.09;98106.56;2211822;80;20948;-82
2021/07/31 08:06:10;;;;;;;10.85;8.58;;;;;;;29.32;40.83;98104.03;2212526;81;21312;-83
2021/07/31 08:09:14;;;;;;;12.47;8.95;;;;;;;29.37;41.04;98111.26;2212072;80;20920;-82
2021/07/31 08:12:14;;;;;;;9.18;8.20;;;;;;;29.33;40.79;98116.50;2211903;80;20885;-82
2021/07/31 08:15:15;;;;;;;9.75;8.83;;;;;;;29.34;39.61;98110.15;2211718;80;21284;-81
2021/07/31 08:18:15;;;;;;;9.20;8.30;;;;;;;29.22;40.94;98118.66;2211522;80;20913;-81
2021/07/31 08:21:16;;;;;;;12.18;8.58;;;;;;;29.33;40.39;98120.53;2211552;80;20964;-82
2021/07/31 08:24:17;;;;;;;13.30;8.05;;;;;;;29.32;40.38;98119.67;2211532;80;21272;-80
2021/07/31 08:27:17;;;;;;;9.98;7.60;;;;;;;29.38;40.16;98124.58;2211778;81;20924;-80
2021/07/31 08:30:18;;;;;;;10.25;8.60;;;;;;;29.91;40.00;98118.30;2211682;80;20909;-82
2021/07/31 08:33:18;;;;;;;12.85;7.50;;;;;;;30.13;38.57;98125.58;2211720;80;20952;-82
2021/07/31 08:36:19;;;;;;;10.68;7.05;;;;;;;30.30;39.39;98110.28;2211582;80;20988;-81
2021/07/31 08:39:19;;;;;;;9.55;7.47;;;;;;;30.58;38.37;98110.30;2211645;80;20924;-81
2021/07/31 08:42:20;;;;;;;9.95;8.03;;;;;;;30.68;37.70;98115.81;2211502;80;21371;-81
2021/07/31 08:45:20;;;;;;;8.38;7.47;;;;;;;30.75;37.50;98118.37;2211738;80;20952;-81
2021/07/31 08:48:21;;;;;;;10.48;7.60;;;;;;;30.64;38.16;98122.44;2211519;81;20936;-81
2021/07/31 08:51:21;;;;;;;12.13;7.70;;;;;;;30.57;36.79;98131.47;2211855;80;20971;-83
2021/07/31 08:54:22;;;;;;;12.35;7.85;;;;;;;30.31;37.98;98136.22;2211575;80;20901;-82
2021/07/31 08:57:22;;;;;;;9.88;8.18;;;;;;;30.21;37.31;98129.86;2211826;81;20944;-82
2021/07/31 09:00:23;;;;;;;10.50;7.67;;;;;;;30.22;37.56;98130.72;2211562;80;20960;-82
2021/07/31 09:03:23;;;;;;;9.33;7.85;;;;;;;30.25;37.62;98127.30;2211420;80;21324;-82
2021/07/31 09:06:24;;;;;;;10.50;7.42;;;;;;;30.34;37.95;98138.67;2211843;81;21340;-81
2021/07/31 09:09:25;;;;;;;8.20;7.45;;;;;;;30.31;37.92;98138.06;2211675;80;20948;-83
2021/07/31 09:12:25;;;;;;;7.42;6.67;;;;;;;30.39;37.66;98139.69;2211639;80;20948;-82
2021/07/31 09:15:26;;;;;;;12.23;8.95;;;;;;;30.47;37.99;98143.11;2211668;80;20944;-81
2021/07/31 09:18:26;;;;;;;10.10;6.97;;;;;;;30.29;36.92;98152.98;2211458;80;20940;-81
2021/07/31 09:21:27;;;;;;;26.12;9.30;;;;;;;30.31;37.93;98144.30;2211566;81;20952;-83
2021/07/31 09:24:27;;;;;;;14.33;8.00;;;;;;;30.58;37.64;98152.53;2211555;80;20932;-82
2021/07/31 09:27:31;;;;;;;10.48;7.40;;;;;;;30.60;36.09;98168.11;2211404;81;20909;-82
2021/07/31 09:30:31;;;;;;;9.18;6.58;;;;;;;30.35;36.84;98162.45;2211545;80;20981;-81
2021/07/31 09:33:32;;;;;;;11.60;7.90;;;;;;;29.97;37.00;98167.60;2211561;80;20972;-82
2021/07/31 09:36:32;;;;;;;12.15;7.12;;;;;;;29.35;38.04;98163.80;2211069;80;21027;-81
2021/07/31 09:39:33;;;;;;;10.35;7.67;;;;;;;28.79;38.59;98172.85;2211460;80;20909;-81
2021/07/31 09:42:33;;;;;;;14.07;7.97;;;;;;;28.27;39.65;98163.63;2211511;81;20944;-81
2021/07/31 09:45:34;;;;;;;11.90;7.97;;;;;;;27.83;40.28;98165.36;2211617;81;20937;-82
2021/07/31 09:48:34;;;;;;;14.47;8.15;;;;;;;27.71;40.94;98165.69;2211498;80;20940;-80
2021/07/31 09:51:35;;;;;;;20.23;8.10;;;;;;;27.64;41.47;98168.89;2211641;80;21351;-82
2021/07/31 09:54:35;;;;;;;12.75;7.42;;;;;;;27.47;41.52;98179.38;2211832;80;21344;-80
2021/07/31 09:57:36;;;;;;;11.48;8.63;;;;;;;27.31;42.09;98180.03;2211841;80;20928;-79
2021/07/31 10:00:36;;;;;;;12.58;7.97;;;;;;;27.08;41.90;98177.53;2211908;80;20945;-81
2021/07/31 10:03:37;;;;;;;9.65;8.03;;;;;;;26.85;42.60;98177.63;2211147;80;20986;-82
2021/07/31 10:06:38;;;;;;;9.38;7.50;;;;;;;26.64;43.18;98182.06;2211758;80;21260;-82
2021/07/31 10:09:38;;;;;;;11.68;7.78;;;;;;;26.36;43.29;98175.40;2211918;81;20928;-82
2021/07/31 10:12:39;;;;;;;8.68;7.78;;;;;;;26.13;43.84;98177.27;2211943;80;20929;-81
2021/07/31 10:15:39;;;;;;;12.65;7.37;;;;;;;26.14;44.14;98174.98;2211794;80;20921;-81
2021/07/31 10:18:40;;;;;;;10.78;7.70;;;;;;;26.25;44.36;98175.17;2211590;80;20972;-80
2021/07/31 10:21:40;;;;;;;12.78;7.67;;;;;;;26.66;43.69;98171.26;2211631;80;21331;-82
2021/07/31 10:24:41;;;;;;;16.00;7.40;;;;;;;27.00;42.80;98175.35;2211804;80;21398;-81
2021/07/31 10:27:41;;;;;;;11.45;7.05;;;;;;;27.08;42.13;98167.67;2211704;80;20920;-80
2021/07/31 10:30:42;;;;;;;9.63;6.78;;;;;;;27.23;42.01;98172.02;2211811;80;20945;-81
2021/07/31 10:33:42;;;;;;;7.58;6.78;;;;;;;27.42;41.49;98170.79;2211188;81;20920;-82
2021/07/31 10:36:43;;;;;;;9.48;7.05;;;;;;;27.43;41.74;98177.88;2211389;80;20960;-80
2021/07/31 10:39:43;;;;;;;10.28;6.72;;;;;;;27.41;40.96;98180.66;2211546;80;21352;-81
2021/07/31 10:42:44;;;;;;;7.67;6.97;;;;;;;27.17;41.34;98179.13;2211491;80;20928;-81
2021/07/31 10:45:44;;;;;;;7.37;6.53;;;;;;;26.94;41.48;98169.03;2211625;81;20968;-81
2021/07/31 10:48:45;;;;;;;10.30;6.97;;;;;;;26.73;42.12;98165.03;2211369;81;20936;-81
2021/07/31 10:51:45;;;;;;;7.10;6.40;;;;;;;27.02;41.93;98161.86;2210590;80;20979;-82
2021/07/31 10:54:46;;;;;;;9.35;6.53;;;;;;;27.28;41.05;98161.86;2211188;80;20940;-82
2021/07/31 10:57:46;;;;;;;8.55;7.45;;;;;;;27.47;41.24;98159.28;2211450;80;21391;-82
2021/07/31 11:00:47;;;;;;;10.38;6.78;;;;;;;27.29;41.13;98159.55;2211684;80;20936;-81
2021/07/31 11:03:47;;;;;;;14.83;7.45;;;;;;;27.28;41.40;98156.50;2211451;80;20971;-82
2021/07/31 11:06:48;;;;;;;7.58;6.83;;;;;;;27.54;41.58;98157.42;2210765;80;20945;-80
2021/07/31 11:09:48;;;;;;;11.68;7.28;;;;;;;27.77;41.53;98155.91;2211077;80;20936;-80
2021/07/31 11:12:49;;;;;;;12.63;7.62;;;;;;;28.00;41.32;98151.64;2211500;80;20952;-82
2021/07/31 11:15:50;;;;;;;13.60;8.13;;;;;;;28.37;40.76;98151.27;2211506;81;21000;-82
2021/07/31 11:18:50;;;;;;;14.10;6.95;;;;;;;28.51;40.83;98155.16;2211630;80;20977;-81
2021/07/31 11:21:52;;;;;;;8.93;6.78;;;;;;;28.45;40.44;98151.58;2211079;81;20983;-82
2021/07/31 11:24:55;;;;;;;8.48;7.67;;;;;;;28.43;40.44;98156.20;2211513;81;20948;-80
2021/07/31 11:27:56;;;;;;;7.90;7.12;;;;;;;28.20;40.32;98151.58;2211534;80;20932;-80
2021/07/31 11:30:56;;;;;;;7.60;6.90;;;;;;;28.25;40.98;98148.12;2211568;80;20937;-79
2021/07/31 11:33:58;;;;;;;11.35;7.12;;;;;;;28.44;40.69;98138.27;2210922;80;21185;-81
2021/07/31 11:36:58;;;;;;;10.95;7.30;;;;;;;28.44;40.69;98138.27;2211302;80;20978;-81
2021/07/31 11:39:59;;;;;;;8.63;7.20;;;;;;;28.51;40.94;98141.74;2211476;81;20980;-80
2021/07/31 11:43:00;;;;;;;13.58;7.40;;;;;;;28.59;40.30;98137.64;2211455;80;20980;-80
2021/07/31 11:46:00;;;;;;;8.13;7.22;;;;;;;28.51;39.88;98135.03;2211583;80;20929;-81
2021/07/31 11:49:01;;;;;;;10.93;7.20;;;;;;;28.41;40.37;98132.63;2211327;80;20932;-80
2021/07/31 11:52:01;;;;;;;11.22;7.62;;;;;;;28.68;40.36;98126.27;2211578;80;21359;-81
2021/07/31 11:55:02;;;;;;;13.32;7.28;;;;;;;28.71;40.21;98128.73;2211638;80;20908;-81
2021/07/31 11:58:02;;;;;;;8.75;7.35;;;;;;;28.96;40.10;98134.05;2211406;81;20937;-81
2021/07/31 12:01:03;;;;;;;8.10;7.22;;;;;;;29.15;39.54;98135.73;2211555;80;21315;-80
2021/07/31 12:04:04;;;;;;;10.68;7.45;;;;;;;29.14;39.13;98124.61;2211460;80;20943;-80
2021/07/31 12:07:05;;;;;;;8.23;7.15;;;;;;;29.29;39.27;98126.63;2211585;81;20965;-80
2021/07/31 12:10:08;;;;;;;11.97;7.22;;;;;;;29.36;39.28;98127.88;2211625;80;20975;-81
2021/07/31 12:13:08;;;;;;;10.43;7.22;;;;;;;29.25;39.18;98133.69;2211436;81;21287;-82
2021/07/31 12:16:09;;;;;;;9.10;7.53;;;;;;;29.00;39.66;98132.84;2211412;81;21368;-82
2021/07/31 12:19:09;;;;;;;12.75;7.37;;;;;;;29.14;39.49;98132.67;2211192;80;20980;-81
2021/07/31 12:22:10;;;;;;;9.45;7.25;;;;;;;29.14;40.24;98138.04;2211526;80;20980;-81
2021/07/31 12:25:10;;;;;;;10.70;6.87;;;;;;;29.09;39.25;98132.16;2211273;80;20948;-82
2021/07/31 12:28:13;;;;;;;40.58;10.93;;;;;;;29.01;39.63;98135.90;2211415;81;20945;-82
2021/07/31 12:31:13;;;;;;;12.13;7.30;;;;;;;29.16;39.10;98133.41;2211454;81;20932;-81
2021/07/31 12:34:16;;;;;;;13.98;7.20;;;;;;;29.33;39.08;98132.63;2211612;80;21347;-82
2021/07/31 12:37:16;;;;;;;8.95;7.12;;;;;;;29.46;39.06;98142.85;2211295;80;21368;-81
2021/07/31 12:40:17;;;;;;;8.15;6.62;;;;;;;29.64;39.06;98137.45;2211461;80;20949;-83
2021/07/31 12:43:17;;;;;;;14.28;7.28;;;;;;;29.93;38.60;98137.02;2211368;80;21316;-82
2021/07/31 12:46:18;;;;;;;9.65;7.90;;;;;;;30.04;38.10;98139.27;2211567;80;21253;-81
2021/07/31 12:49:18;;;;;;;8.40;7.60;;;;;;;30.09;37.77;98142.94;2211466;81;20917;-82
2021/07/31 12:52:19;;;;;;;7.80;7.00;;;;;;;30.08;37.85;98139.39;2211464;80;20940;-82
2021/07/31 12:55:19;;;;;;;7.17;6.50;;;;;;;30.10;38.22;98150.89;2211553;80;20981;-80
2021/07/31 12:58:20;;;;;;;8.20;7.33;;;;;;;30.06;37.57;98148.08;2211384;80;20897;-81
2021/07/31 13:01:20;;;;;;;9.53;6.87;;;;;;;29.83;38.08;98149.47;2211507;80;21272;-82
2021/07/31 13:04:21;;;;;;;12.00;6.45;;;;;;;29.83;38.14;98150.33;2211649;80;20933;-80
2021/07/31 13:07:21;;;;;;;13.62;6.97;;;;;;;29.83;38.41;98144.09;2211543;80;20897;-81
2021/07/31 13:10:22;;;;;;;9.73;7.75;;;;;;;29.72;38.94;98147.13;2211471;80;20959;-81
2021/07/31 13:13:23;;;;;;;9.38;7.17;;;;;;;29.73;38.36;98148.84;2211429;80;20936;-81
2021/07/31 13:16:24;;;;;;;10.25;7.30;;;;;;;29.30;39.20;98149.84;2211341;81;21379;-81
2021/07/31 13:19:25;;;;;;;8.70;7.08;;;;;;;29.37;39.47;98146.20;2211490;80;20904;-81
2021/07/31 13:22:25;;;;;;;11.10;7.03;;;;;;;29.43;39.43;98145.77;2211395;80;21336;-81
2021/07/31 13:25:25;;;;;;;7.90;6.95;;;;;;;29.34;39.70;98151.33;2211606;80;21293;-81
2021/07/31 13:28:29;;;;;;;8.28;7.47;;;;;;;29.52;39.63;98145.59;2211506;81;21041;-81
2021/07/31 13:31:30;;;;;;;11.18;8.08;;;;;;;29.94;39.18;98140.08;2211361;80;20905;-81
2021/07/31 13:34:31;;;;;;;13.80;7.12;;;;;;;30.05;38.23;98141.47;2211386;81;20944;-80
2021/07/31 13:37:44;;;;;;;10.53;7.28;;;;;;;29.89;38.64;98144.96;2214417;80;21447;-81
2021/07/31 13:40:50;;;;;;;9.38;6.50;;;;;;;29.81;38.90;98145.55;2193103;80;20928;-80
2021/07/31 13:43:50;;;;;;;8.20;7.40;;;;;;;29.56;38.82;98151.96;2221614;80;20939;-80
2021/07/31 13:46:50;;;;;;;8.08;7.28;;;;;;;29.50;39.51;98153.78;2222203;80;21279;-82
2021/07/31 13:49:51;;;;;;;9.25;7.22;;;;;;;29.72;39.18;98152.98;2221698;80;20980;-80
2021/07/31 13:52:51;;;;;;;14.95;7.58;;;;;;;30.14;38.61;98142.09;2222013;80;20897;-81
2021/07/31 13:55:51;;;;;;;10.00;8.28;;;;;;;30.59;37.92;98138.11;2222147;80;21322;-81
2021/07/31 13:58:52;;;;;;;8.20;7.40;;;;;;;30.73;37.99;98132.46;2222339;80;20968;-82